createdAt,value
2019-05-17T00:01:11.347Z,7.60
2019-05-17T00:03:42.063Z,7.67
2019-05-17T00:06:12.731Z,9.13
2019-05-17T00:08:43.315Z,10.68
2019-05-17T00:11:13.752Z,7.62
2019-05-17T00:13:46.492Z,8.23
2019-05-17T00:16:17.432Z,10.00
2019-05-17T00:18:49.196Z,10.08
2019-05-17T00:21:20.306Z,8.05
2019-05-17T00:23:51.279Z,8.05
2019-05-17T00:26:22.031Z,8.25
2019-05-17T00:28:52.640Z,8.53
2019-05-17T00:31:26.290Z,8.30
2019-05-17T00:33:56.925Z,8.50
2019-05-17T00:36:28.256Z,10.58
2019-05-17T00:38:58.767Z,11.15
2019-05-17T00:41:29.296Z,9.33
2019-05-17T00:44:00.444Z,11.43
2019-05-17T00:46:31.394Z,10.98
2019-05-17T00:49:02.063Z,10.63
2019-05-17T00:51:32.554Z,9.68
2019-05-17T00:54:03.160Z,9.55
2019-05-17T00:56:33.715Z,9.60
2019-05-17T00:59:07.277Z,10.95
2019-05-17T01:01:38.099Z,10.00
2019-05-17T01:04:08.797Z,9.20
2019-05-17T01:06:39.391Z,10.60
2019-05-17T01:09:10.299Z,10.18
2019-05-17T01:11:40.711Z,9.48
2019-05-17T01:14:11.135Z,10.82
2019-05-17T01:16:41.601Z,9.60
2019-05-17T01:19:16.390Z,10.45
2019-05-17T01:21:47.539Z,9.55
2019-05-17T01:24:18.152Z,9.88
2019-05-17T01:26:49.491Z,8.23
2019-05-17T01:29:21.075Z,7.83
2019-05-17T01:31:52.150Z,7.85
2019-05-17T01:34:27.244Z,6.65
2019-05-17T01:36:58.208Z,7.50
2019-05-17T01:39:28.603Z,7.65
2019-05-17T01:41:59.067Z,7.65
2019-05-17T01:44:29.729Z,7.12
2019-05-17T01:47:00.308Z,7.33
2019-05-17T01:52:12.703Z,8.00
2019-05-17T01:54:43.188Z,7.12
2019-05-17T01:57:13.774Z,7.70
2019-05-17T01:59:46.703Z,7.72
2019-05-17T02:02:21.099Z,7.75
2019-05-17T02:04:52.615Z,7.17
2019-05-17T02:10:07.475Z,7.47
2019-05-17T02:12:38.274Z,7.35
2019-05-17T02:15:11.187Z,7.33
2019-05-17T02:17:41.767Z,8.23
2019-05-17T02:20:16.852Z,8.40
2019-05-17T02:22:47.528Z,8.55
2019-05-17T02:25:18.396Z,7.97
2019-05-17T02:27:48.796Z,8.75
2019-05-17T02:30:22.972Z,8.95
2019-05-17T02:32:54.055Z,9.18
2019-05-17T02:35:25.073Z,9.65
2019-05-17T02:37:55.754Z,9.80
2019-05-17T02:40:26.235Z,9.80
2019-05-17T02:42:56.743Z,8.93
2019-05-17T02:45:28.601Z,9.60
2019-05-17T02:48:03.265Z,9.75
2019-05-17T02:50:33.361Z,10.18
2019-05-17T02:53:04.953Z,9.95
2019-05-17T02:55:35.799Z,10.10
2019-05-17T02:58:06.465Z,10.10
2019-05-17T03:00:36.984Z,10.58
2019-05-17T03:03:07.571Z,10.13
2019-05-17T03:05:38.189Z,9.50
2019-05-17T03:08:08.920Z,9.20
2019-05-17T03:10:42.983Z,8.23
2019-05-17T03:13:13.233Z,8.30
2019-05-17T03:15:44.786Z,8.28
2019-05-17T03:18:15.692Z,9.18
2019-05-17T03:20:46.396Z,7.42
2019-05-17T03:23:16.821Z,7.75
2019-05-17T03:25:47.321Z,8.15
2019-05-17T03:28:17.924Z,8.65
2019-05-17T03:30:49.043Z,8.05
2019-05-17T03:33:25.856Z,8.00
2019-05-17T03:35:56.484Z,9.03
2019-05-17T03:38:25.888Z,8.73
2019-05-17T03:41:09.356Z,9.05
2019-05-17T03:43:28.831Z,8.10
2019-05-17T03:46:02.447Z,8.10
2019-05-17T03:48:33.269Z,8.65
2019-05-17T03:51:04.192Z,8.70
2019-05-17T03:53:34.712Z,8.55
2019-05-17T03:56:05.841Z,9.55
2019-05-17T03:58:36.702Z,9.55
2019-05-17T04:01:07.303Z,9.58
2019-05-17T04:03:38.968Z,9.95
2019-05-17T04:06:13.042Z,10.28
2019-05-17T04:08:42.489Z,9.75
2019-05-17T04:11:25.245Z,10.35
2019-05-17T04:13:45.378Z,10.08
2019-05-17T04:16:16.826Z,10.30
2019-05-17T04:18:47.387Z,11.80
2019-05-17T04:21:17.892Z,10.60
2019-05-17T04:23:48.444Z,10.58
2019-05-17T04:26:25.866Z,11.35
2019-05-17T04:28:56.397Z,9.90
2019-05-17T04:31:30.711Z,10.85
2019-05-17T04:34:02.653Z,10.80
2019-05-17T04:36:32.306Z,10.30
2019-05-17T04:39:03.992Z,10.63
2019-05-17T04:41:45.051Z,12.65
2019-05-17T04:44:08.303Z,11.53
2019-05-17T04:46:38.852Z,10.75
2019-05-17T04:49:13.492Z,10.38
2019-05-17T04:51:43.840Z,12.03
2019-05-17T04:54:14.488Z,11.80
2019-05-17T04:56:45.181Z,11.22
2019-05-17T04:59:15.696Z,12.00
2019-05-17T05:01:46.504Z,11.70
2019-05-17T05:04:17.071Z,11.53
2019-05-17T05:06:47.780Z,11.30
2019-05-17T05:09:18.365Z,11.40
2019-05-17T05:11:57.031Z,11.75
2019-05-17T05:14:23.361Z,11.35
2019-05-17T05:16:53.833Z,11.05
2019-05-17T05:19:33.091Z,11.95
2019-05-17T05:22:04.760Z,12.25
2019-05-17T05:24:36.606Z,11.43
2019-05-17T05:27:07.063Z,11.78
2019-05-17T05:29:37.607Z,13.43
2019-05-17T05:32:11.657Z,11.95
2019-05-17T05:34:42.895Z,13.00
2019-05-17T05:37:13.863Z,12.85
2019-05-17T05:39:44.282Z,12.23
2019-05-17T05:42:14.836Z,12.85
2019-05-17T05:44:45.336Z,13.00
2019-05-17T05:47:15.887Z,12.82
2019-05-17T05:49:46.359Z,12.82
2019-05-17T05:52:18.638Z,11.70
2019-05-17T05:54:49.176Z,13.05
2019-05-17T05:57:21.832Z,11.78
2019-05-17T05:59:52.580Z,12.13
2019-05-17T06:02:23.272Z,13.05
2019-05-17T06:04:53.767Z,12.23
2019-05-17T06:07:24.299Z,12.95
2019-05-17T06:09:54.975Z,11.88
2019-05-17T06:12:28.155Z,11.40
2019-05-17T06:14:59.003Z,12.05
2019-05-17T06:17:31.809Z,11.95
2019-05-17T06:20:06.192Z,11.85
2019-05-17T06:22:36.667Z,10.25
2019-05-17T06:25:07.419Z,10.50
2019-05-17T06:27:38.032Z,10.75
2019-05-17T06:30:09.333Z,11.20
2019-05-17T06:32:42.719Z,10.93
2019-05-17T06:35:12.810Z,13.58
2019-05-17T06:37:43.439Z,15.88
2019-05-17T06:40:14.116Z,15.05
2019-05-17T06:42:45.658Z,16.73
2019-05-17T06:45:17.308Z,18.25
2019-05-17T06:47:47.831Z,17.50
2019-05-17T06:50:18.589Z,15.53
2019-05-17T06:52:49.195Z,15.88
2019-05-17T06:55:19.815Z,13.95
2019-05-17T06:57:52.666Z,13.83
2019-05-17T07:00:24.104Z,13.30
2019-05-17T07:02:54.744Z,15.83
2019-05-17T07:05:29.380Z,14.18
2019-05-17T07:08:00.402Z,13.95
2019-05-17T07:10:31.163Z,15.10
2019-05-17T07:13:02.139Z,14.10
2019-05-17T07:15:43.793Z,14.80
2019-05-17T07:18:06.664Z,13.98
2019-05-17T07:20:39.329Z,14.18
2019-05-17T07:23:10.681Z,12.95
2019-05-17T07:25:41.557Z,13.00
2019-05-17T07:28:12.488Z,14.10
2019-05-17T07:30:42.980Z,12.82
2019-05-17T07:33:13.408Z,13.40
2019-05-17T07:35:43.972Z,13.70
2019-05-17T07:38:14.573Z,13.20
2019-05-17T07:40:45.139Z,13.10
2019-05-17T07:43:15.735Z,13.32
2019-05-17T07:45:46.237Z,12.00
2019-05-17T07:48:16.858Z,12.68
2019-05-17T07:50:50.202Z,11.97
2019-05-17T07:53:20.429Z,12.00
2019-05-17T07:55:51.143Z,12.80
2019-05-17T07:58:21.643Z,13.30
2019-05-17T08:00:55.904Z,13.78
2019-05-17T08:03:31.650Z,11.12
2019-05-17T08:06:03.259Z,10.40
2019-05-17T08:08:33.751Z,11.03
2019-05-17T08:11:04.203Z,10.20
2019-05-17T08:13:34.643Z,9.90
2019-05-17T08:16:11.589Z,10.50
2019-05-17T08:18:43.101Z,10.10
2019-05-17T08:21:13.767Z,10.85
2019-05-17T08:23:44.675Z,10.05
2019-05-17T08:26:15.232Z,10.72
2019-05-17T08:28:45.694Z,10.65
2019-05-17T08:31:16.253Z,10.90
2019-05-17T08:33:46.790Z,10.15
2019-05-17T08:36:17.302Z,10.72
2019-05-17T08:38:50.001Z,10.55
2019-05-17T08:41:20.868Z,10.32
2019-05-17T08:43:51.642Z,10.65
2019-05-17T08:46:22.311Z,10.23
2019-05-17T08:48:52.832Z,9.78
2019-05-17T08:51:23.487Z,10.40
2019-05-17T08:53:54.080Z,9.68
2019-05-17T08:56:24.696Z,10.32
2019-05-17T08:58:55.435Z,10.30
2019-05-17T09:04:09.269Z,9.93
2019-05-17T09:06:39.912Z,9.50
2019-05-17T09:09:10.686Z,10.00
2019-05-17T09:11:41.096Z,10.40
2019-05-17T09:14:11.546Z,10.60
2019-05-17T09:16:41.984Z,10.45
2019-05-17T09:19:14.013Z,10.75
2019-05-17T09:21:44.642Z,11.00
2019-05-17T09:24:15.149Z,10.48
2019-05-17T09:29:22.720Z,11.35
2019-05-17T09:31:53.247Z,11.15
2019-05-17T09:34:23.775Z,11.15
2019-05-17T09:36:54.683Z,11.33
2019-05-17T09:39:25.103Z,11.12
2019-05-17T09:41:56.500Z,12.63
2019-05-17T09:44:26.867Z,12.88
2019-05-17T09:46:59.360Z,12.63
2019-05-17T09:49:29.954Z,12.30
2019-05-17T09:52:00.551Z,11.85
2019-05-17T09:54:41.383Z,12.75
2019-05-17T09:57:02.968Z,12.35
2019-05-17T09:59:33.408Z,12.10
2019-05-17T10:02:03.995Z,11.08
2019-05-17T10:04:34.656Z,12.05
2019-05-17T10:07:05.395Z,11.43
2019-05-17T10:09:35.835Z,12.33
2019-05-17T10:12:06.260Z,12.18
2019-05-17T10:14:37.035Z,12.55
2019-05-17T10:17:09.895Z,12.03
2019-05-17T10:22:26.620Z,12.07
2019-05-17T10:25:03.208Z,11.65
2019-05-17T10:27:33.627Z,12.40
2019-05-17T10:30:04.873Z,11.78
2019-05-17T10:32:35.452Z,11.35
2019-05-17T10:35:06.811Z,10.85
2019-05-17T10:37:40.341Z,11.70
2019-05-17T10:40:10.753Z,11.00
2019-05-17T10:42:41.363Z,11.75
2019-05-17T10:45:12.094Z,12.53
2019-05-17T10:47:42.699Z,12.07
2019-05-17T10:50:13.999Z,11.63
2019-05-17T10:52:44.435Z,12.05
2019-05-17T10:55:14.975Z,12.23
2019-05-17T10:57:45.466Z,12.03
2019-05-17T11:00:16.452Z,13.90
2019-05-17T11:02:47.892Z,14.33
2019-05-17T11:05:20.265Z,13.00
2019-05-17T11:07:51.019Z,13.72
2019-05-17T11:10:22.687Z,12.60
2019-05-17T11:12:53.111Z,13.00
2019-05-17T11:15:23.819Z,12.88
2019-05-17T11:17:54.335Z,12.13
2019-05-17T11:20:25.552Z,13.48
2019-05-17T11:22:59.921Z,11.75
2019-05-17T11:25:32.051Z,13.28
2019-05-17T11:28:02.550Z,12.00
2019-05-17T11:30:33.128Z,11.85
2019-05-17T11:33:03.787Z,10.88
2019-05-17T11:35:34.264Z,11.50
2019-05-17T11:38:04.836Z,11.63
2019-05-17T11:40:35.445Z,12.43
2019-05-17T11:43:06.028Z,12.35
2019-05-17T11:45:36.564Z,11.78
2019-05-17T11:48:07.235Z,11.80
2019-05-17T11:50:38.496Z,10.58
2019-05-17T11:53:13.889Z,10.53
2019-05-17T11:55:44.291Z,11.45
2019-05-17T11:58:14.708Z,11.20
2019-05-17T12:00:45.172Z,11.63
2019-05-17T12:03:15.932Z,10.82
2019-05-17T12:05:46.494Z,11.80
2019-05-17T12:08:16.889Z,12.18
2019-05-17T12:10:47.674Z,12.25
2019-05-17T12:13:18.394Z,13.05
2019-05-17T12:15:48.843Z,12.15
2019-05-17T12:18:19.219Z,13.40
2019-05-17T12:20:49.915Z,12.88
2019-05-17T12:23:20.402Z,13.60
2019-05-17T12:25:50.936Z,12.68
2019-05-17T12:28:21.339Z,11.85
2019-05-17T12:30:51.756Z,12.28
2019-05-17T12:33:22.263Z,11.85
2019-05-17T12:35:52.684Z,12.60
2019-05-17T12:38:23.501Z,12.40
2019-05-17T12:40:55.355Z,12.30
2019-05-17T12:43:28.727Z,13.35
2019-05-17T12:46:01.883Z,12.68
2019-05-17T12:48:34.589Z,12.07
2019-05-17T12:51:07.959Z,12.13
2019-05-17T12:53:42.253Z,10.68
2019-05-17T12:56:13.392Z,12.58
2019-05-17T12:58:46.228Z,11.93
2019-05-17T13:01:18.151Z,11.22
2019-05-17T13:03:50.302Z,10.32
2019-05-17T13:06:22.688Z,11.75
2019-05-17T13:08:54.135Z,11.63
2019-05-17T13:11:25.230Z,12.60
2019-05-17T13:13:57.359Z,13.15
2019-05-17T13:16:30.483Z,12.10
2019-05-17T13:19:03.016Z,12.35
2019-05-17T13:21:36.117Z,14.03
2019-05-17T13:24:07.647Z,13.68
2019-05-17T13:26:42.399Z,13.68
2019-05-17T13:29:14.512Z,14.03
2019-05-17T13:31:46.694Z,14.95
2019-05-17T13:34:20.948Z,14.83
2019-05-17T13:36:54.804Z,14.83
2019-05-17T13:39:26.803Z,15.60
2019-05-17T13:41:59.093Z,15.50
2019-05-17T13:44:32.018Z,15.90
2019-05-17T13:47:04.504Z,14.55
2019-05-17T13:49:36.594Z,13.65
2019-05-17T13:52:09.987Z,13.32
2019-05-17T13:54:46.705Z,14.73
2019-05-17T13:57:18.103Z,15.63
2019-05-17T13:59:49.706Z,14.87
2019-05-17T14:02:31.236Z,14.83
2019-05-17T14:05:02.347Z,14.60
2019-05-17T14:07:34.142Z,16.00
2019-05-17T14:10:07.841Z,19.75
2019-05-17T14:12:42.839Z,14.93
2019-05-17T14:15:16.012Z,12.55
2019-05-17T14:17:50.286Z,12.47
2019-05-17T14:20:22.694Z,12.03
2019-05-17T14:22:57.123Z,13.80
2019-05-17T14:25:28.610Z,14.13
2019-05-17T14:28:02.136Z,12.40
2019-05-17T14:30:34.092Z,11.97
2019-05-17T14:33:05.615Z,14.03
2019-05-17T14:35:37.467Z,11.90
2019-05-17T14:38:11.319Z,12.93
2019-05-17T14:41:05.665Z,13.28
2019-05-17T14:43:19.080Z,12.28
2019-05-17T14:45:52.043Z,12.68
2019-05-17T14:48:23.777Z,13.90
2019-05-17T14:50:56.104Z,14.05
2019-05-17T14:53:30.133Z,13.03
2019-05-17T14:56:01.083Z,13.32
2019-05-17T14:58:34.003Z,12.33
2019-05-17T15:01:05.839Z,12.82
2019-05-17T15:03:40.632Z,12.95
2019-05-17T15:06:13.669Z,11.55
2019-05-17T15:08:44.831Z,12.28
2019-05-17T15:11:17.694Z,12.13
2019-05-17T15:40:42.718Z,9.58
2019-05-17T15:43:13.225Z,9.15
2019-05-17T15:45:43.755Z,9.43
2019-05-17T15:48:14.407Z,8.90
2019-05-17T15:50:51.113Z,9.80
2019-05-17T15:53:34.433Z,9.28
2019-05-17T15:56:11.569Z,9.95
2019-05-17T15:58:49.154Z,8.70
2019-05-17T16:01:19.775Z,9.45
2019-05-17T16:03:50.239Z,9.68
2019-05-17T16:06:20.891Z,10.50
2019-05-17T16:08:51.549Z,9.55
2019-05-17T16:11:22.064Z,9.25
2019-05-17T16:13:52.599Z,8.48
2019-05-17T16:16:23.155Z,9.30
2019-05-17T16:18:55.514Z,9.05
2019-05-17T16:21:32.843Z,9.78
2019-05-17T16:24:03.375Z,9.20
2019-05-17T16:26:34.019Z,9.25
2019-05-17T16:29:16.755Z,9.53
2019-05-17T16:31:47.281Z,10.28
2019-05-17T16:34:17.839Z,10.13
2019-05-17T16:36:51.915Z,9.30
2019-05-17T16:39:22.348Z,10.15
2019-05-17T16:41:52.847Z,11.55
2019-05-17T16:44:23.688Z,9.50
2019-05-17T16:46:54.116Z,9.88
2019-05-17T16:49:24.615Z,10.65
2019-05-17T16:51:55.315Z,10.45
2019-05-17T16:54:25.772Z,14.13
2019-05-17T16:59:39.975Z,11.12
2019-05-17T17:02:14.760Z,9.88
2019-05-17T17:04:45.288Z,10.43
2019-05-17T17:07:15.751Z,11.05
2019-05-17T17:09:46.233Z,10.53
2019-05-17T17:12:16.746Z,9.98
2019-05-17T17:14:47.613Z,10.80
2019-05-17T17:17:18.171Z,10.28
2019-05-17T17:19:48.710Z,12.23
2019-05-17T17:22:19.440Z,11.57
2019-05-17T17:24:49.959Z,11.48
2019-05-17T17:27:20.486Z,10.58
2019-05-17T17:32:27.491Z,9.88
2019-05-17T17:34:57.932Z,9.90
2019-05-17T17:37:31.344Z,10.08
2019-05-17T17:40:01.888Z,9.58
2019-05-17T17:42:32.707Z,10.95
2019-05-17T17:45:03.364Z,10.35
2019-05-17T17:47:33.760Z,10.53
2019-05-17T17:50:04.447Z,10.55
2019-05-17T17:52:36.106Z,10.20
2019-05-17T17:55:06.704Z,10.78
2019-05-17T17:57:41.264Z,11.53
2019-05-17T18:00:17.146Z,11.28
2019-05-17T18:02:47.669Z,10.98
2019-05-17T18:05:18.476Z,10.75
2019-05-17T18:07:49.020Z,12.25
2019-05-17T18:10:27.736Z,13.68
2019-05-17T18:12:58.403Z,11.68
2019-05-17T18:15:39.270Z,11.22
2019-05-17T18:18:09.917Z,10.72
2019-05-17T18:20:40.530Z,11.12
2019-05-17T18:23:11.120Z,10.68
2019-05-17T18:25:42.024Z,11.68
2019-05-17T18:28:12.543Z,10.80
2019-05-17T18:30:43.226Z,10.65
2019-05-17T18:33:13.827Z,11.88
2019-05-17T18:35:45.399Z,11.95
2019-05-17T18:38:19.023Z,11.60
2019-05-17T18:40:49.719Z,11.22
2019-05-17T18:43:20.304Z,11.55
2019-05-17T18:45:51.183Z,11.50
2019-05-17T18:48:21.755Z,11.43
2019-05-17T18:50:52.313Z,11.83
2019-05-17T18:53:22.834Z,10.53
2019-05-17T18:55:53.400Z,11.25
2019-05-17T18:58:24.865Z,11.05
2019-05-17T19:00:55.927Z,11.55
2019-05-17T19:03:26.480Z,12.73
2019-05-17T19:05:57.955Z,12.10
2019-05-17T19:08:29.517Z,12.28
2019-05-17T19:11:00.293Z,12.35
2019-05-17T19:13:30.979Z,11.48
2019-05-17T19:16:02.612Z,11.63
2019-05-17T19:18:33.240Z,11.80
2019-05-17T19:21:15.885Z,11.18
2019-05-17T19:23:46.320Z,12.00
2019-05-17T19:26:16.872Z,12.95
2019-05-17T19:28:47.521Z,11.55
2019-05-17T19:31:18.205Z,11.25
2019-05-17T19:33:49.065Z,11.88
2019-05-17T19:36:19.676Z,12.78
2019-05-17T19:38:50.722Z,13.30
2019-05-17T19:41:21.421Z,12.93
2019-05-17T19:43:52.300Z,12.58
2019-05-17T19:46:22.949Z,13.08
2019-05-17T19:48:53.427Z,12.80
2019-05-17T19:51:24.291Z,11.80
2019-05-17T19:53:54.775Z,13.65
2019-05-17T19:56:25.428Z,13.95
2019-05-17T19:58:55.926Z,12.53
2019-05-17T20:01:26.394Z,13.05
2019-05-17T20:03:56.903Z,12.07
2019-05-17T20:06:29.219Z,12.73
2019-05-17T20:08:59.736Z,13.00
2019-05-17T20:11:34.530Z,11.60
2019-05-17T20:14:02.630Z,12.75
2019-05-17T20:16:33.159Z,12.58
2019-05-17T20:19:03.668Z,13.25
2019-05-17T20:21:34.231Z,14.05
2019-05-17T20:24:05.057Z,12.73
2019-05-17T20:26:35.724Z,13.32
2019-05-17T20:29:06.171Z,12.37
2019-05-17T20:31:48.753Z,11.93
2019-05-17T20:34:19.231Z,11.70
2019-05-17T20:36:49.716Z,12.78
2019-05-17T20:39:20.297Z,11.22
2019-05-17T20:41:52.846Z,13.60
2019-05-17T20:44:23.568Z,12.65
2019-05-17T20:46:54.843Z,12.82
2019-05-17T20:49:25.395Z,11.70
2019-05-17T20:51:55.935Z,12.47
2019-05-17T20:54:26.769Z,11.97
2019-05-17T20:56:58.844Z,11.63
2019-05-17T20:59:35.346Z,12.45
2019-05-17T21:02:05.924Z,15.75
2019-05-17T21:04:36.468Z,12.68
2019-05-17T21:07:07.339Z,13.65
2019-05-17T21:09:41.891Z,12.20
2019-05-17T21:12:12.456Z,12.78
2019-05-17T21:14:42.960Z,12.35
2019-05-17T21:17:13.707Z,12.30
2019-05-17T21:19:44.826Z,12.43
2019-05-17T21:22:15.375Z,12.23
2019-05-17T21:24:45.868Z,12.85
2019-05-17T21:27:16.516Z,12.15
2019-05-17T21:29:47.023Z,13.30
2019-05-17T21:32:17.549Z,11.95
2019-05-17T21:34:48.041Z,13.38
2019-05-17T21:37:18.519Z,12.05
2019-05-17T21:39:49.058Z,13.70
2019-05-17T21:42:19.586Z,13.90
2019-05-17T21:44:50.051Z,13.62
2019-05-17T21:47:20.600Z,15.18
2019-05-17T21:49:51.112Z,17.12
2019-05-17T21:52:21.710Z,16.65
2019-05-17T21:54:52.921Z,15.03
2019-05-17T21:57:23.397Z,17.57
2019-05-17T21:59:53.844Z,16.97
2019-05-17T22:02:24.452Z,17.75
2019-05-17T22:04:55.434Z,18.15
2019-05-17T22:07:29.985Z,18.67
2019-05-17T22:12:36.833Z,20.92
2019-05-17T22:15:08.428Z,20.57
2019-05-17T22:17:38.975Z,20.77
2019-05-17T22:20:09.675Z,19.07
2019-05-17T22:22:44.031Z,20.30
2019-05-17T22:25:14.560Z,19.92
2019-05-17T22:27:45.021Z,19.48
2019-05-17T22:30:15.528Z,21.10
2019-05-17T22:32:46.112Z,20.08
2019-05-17T22:35:16.638Z,21.00
2019-05-17T22:37:47.091Z,20.45
2019-05-17T22:40:17.628Z,20.30
2019-05-17T22:42:48.105Z,21.02
2019-05-17T22:45:18.612Z,20.82
2019-05-17T22:50:26.786Z,19.85
2019-05-17T22:52:57.131Z,19.67
2019-05-17T22:55:27.693Z,19.87
2019-05-17T22:57:58.271Z,19.77
2019-05-17T23:00:28.831Z,20.23
2019-05-17T23:02:59.511Z,19.60
2019-05-17T23:05:30.485Z,19.67
2019-05-17T23:10:43.123Z,20.00
2019-05-17T23:13:13.715Z,17.80
2019-05-17T23:16:01.153Z,18.35
2019-05-17T23:18:33.351Z,17.37
2019-05-17T23:21:04.323Z,18.87
2019-05-17T23:23:34.987Z,18.25
2019-05-17T23:26:05.991Z,18.45
2019-05-17T23:28:36.818Z,18.62
2019-05-17T23:31:07.354Z,18.02
2019-05-17T23:33:37.909Z,18.57
2019-05-17T23:36:08.471Z,20.23
2019-05-17T23:38:39.265Z,18.45
2019-05-17T23:41:09.869Z,18.50
2019-05-17T23:43:40.323Z,19.32
2019-05-17T23:46:10.804Z,19.20
2019-05-17T23:48:41.321Z,20.00
2019-05-17T23:51:11.942Z,22.25
2019-05-17T23:53:42.339Z,20.82
2019-05-17T23:56:12.759Z,19.98
2019-05-17T23:58:43.243Z,19.42
